MET'MAP v2.0
soon released !

Expected late october,
this new version will be
more efficient, smarter,
and hosted on a brand new
server x3 powerfull...
...and still free !


Not compatible ?
Try the mobile version !

LOG IN : | Subscribe | Disclaimer | Who is Orbifly ? |
ICAO code :
Legend : VFR Marginal VFR IFR Intensive IFR Very Intensive IFR
Visi :
Ceiling :
>= 8 km
>= 3000ft
5 to 8 km
1000 to 3000 ft
1500m to 5 km
500 to 1000 ft
800 to 1500m
200 to 500 ft
< 800m
< 200 ft

METAR - EPZG Zielona Gora Babimost - 28 Nov 2020 11:16 UTC - Data Source NOAA   


- Airport Elevation : 194 ft
- IATA code : IEG
- No reported NOTAMs.


EPZG - Zielona Gora Babimost

Latest METAR recorded : 2014/10/17 09:30 EPZG 170930Z 25005KT 230V290 4700 BR BKN005 OVC009 14/13 Q1010
TAF TAF EPZG
Valid from the 28 at 09:00 until the 28 at 18:00 UTC


280830Z 2809/2818 31004KT 9999 BKN030

Source NOAA


MET'MAP, your aeronautical weather chart ! - Copyright ORBIFLY December 2007

Programming & Development : Alexandra Zaïnal
Co-Developer : Marc-Olivier Méhu
Technical & hardware support : Manuel Goepfert
Concept & Financing : Baudouin d'Aumeries